createdAt,value
2018-03-14T00:01:21.288Z,100231.79
2018-03-14T00:03:49.057Z,100226.49
2018-03-14T00:06:16.592Z,100227.76
2018-03-14T00:08:44.118Z,100234.04
2018-03-14T00:11:11.674Z,100233.63
2018-03-14T00:13:39.204Z,100240.02
2018-03-14T00:16:07.061Z,100240.34
2018-03-14T00:18:34.586Z,100250.63
2018-03-14T00:21:02.129Z,100249.80
2018-03-14T00:23:29.683Z,100250.39
2018-03-14T00:25:57.201Z,100252.69
2018-03-14T00:28:24.733Z,100258.77
2018-03-14T00:30:52.255Z,100262.64
2018-03-14T00:33:19.775Z,100260.73
2018-03-14T00:35:47.333Z,100260.56
2018-03-14T00:38:14.875Z,100260.33
2018-03-14T00:40:42.393Z,100272.92
2018-03-14T00:43:09.933Z,100266.28
2018-03-14T00:45:37.799Z,100270.13
2018-03-14T00:48:05.661Z,100274.66
2018-03-14T00:50:33.162Z,100276.42
2018-03-14T00:53:00.669Z,100265.30
2018-03-14T00:55:28.209Z,100271.09
2018-03-14T00:57:55.731Z,100270.42
2018-03-14T01:00:23.279Z,100271.52
2018-03-14T01:02:50.798Z,100274.84
2018-03-14T01:05:18.689Z,100272.02
2018-03-14T01:07:46.228Z,100275.49
2018-03-14T01:10:13.768Z,100284.30
2018-03-14T01:12:41.333Z,100282.06
2018-03-14T01:15:08.857Z,100287.17
2018-03-14T01:17:36.388Z,100289.67
2018-03-14T01:20:03.930Z,100289.98
2018-03-14T01:22:31.452Z,100296.27
2018-03-14T01:25:00.228Z,100292.90
2018-03-14T01:27:27.784Z,100292.81
2018-03-14T01:29:55.624Z,100293.72
2018-03-14T01:32:23.191Z,100294.26
2018-03-14T01:34:50.704Z,100294.33
2018-03-14T01:37:18.218Z,100290.38
2018-03-14T01:39:45.775Z,100294.45
2018-03-14T01:42:13.387Z,100293.44
2018-03-14T01:44:41.196Z,100296.69
2018-03-14T01:47:09.065Z,100299.01
2018-03-14T01:49:36.828Z,100301.10
2018-03-14T01:52:04.591Z,100310.05
2018-03-14T01:54:32.183Z,100308.81
2018-03-14T01:56:59.687Z,100306.81
2018-03-14T01:59:27.206Z,100308.97
2018-03-14T02:01:54.772Z,100314.97
2018-03-14T02:04:22.606Z,100312.50
2018-03-14T02:06:50.159Z,100316.47
2018-03-14T02:09:17.928Z,100318.05
2018-03-14T02:11:45.507Z,100320.21
2018-03-14T02:14:13.091Z,100324.66
2018-03-14T02:16:40.643Z,100327.91
2018-03-14T02:19:08.291Z,100332.04
2018-03-14T02:21:35.809Z,100335.95
2018-03-14T02:24:03.323Z,100337.80
2018-03-14T02:26:30.866Z,100344.44
2018-03-14T02:28:58.374Z,100340.38
2018-03-14T02:31:26.152Z,100346.09
2018-03-14T02:33:53.672Z,100349.84
2018-03-14T02:39:26.276Z,100354.72
2018-03-14T02:41:54.103Z,100363.29
2018-03-14T02:44:21.872Z,100353.97
2018-03-14T02:46:49.378Z,100356.70
2018-03-14T02:49:16.896Z,100356.66
2018-03-14T02:51:44.472Z,100361.31
2018-03-14T02:54:11.985Z,100364.31
2018-03-14T02:56:39.489Z,100363.81
2018-03-14T02:59:06.974Z,100373.02
2018-03-14T03:01:34.480Z,100377.71
2018-03-14T03:04:01.971Z,100379.75
2018-03-14T03:06:29.501Z,100384.87
2018-03-14T03:08:57.013Z,100379.57
2018-03-14T03:11:24.527Z,100381.27
2018-03-14T03:13:52.035Z,100377.30
2018-03-14T03:16:19.543Z,100382.89
2018-03-14T03:18:47.064Z,100385.06
2018-03-14T03:21:14.622Z,100385.52
2018-03-14T03:23:42.121Z,100388.84
2018-03-14T03:26:09.650Z,100390.77
2018-03-14T03:28:37.144Z,100390.58
2018-03-14T03:31:04.684Z,100391.53
2018-03-14T03:33:32.232Z,100385.51
2018-03-14T03:36:00.033Z,100389.59
2018-03-14T03:38:27.590Z,100396.02
2018-03-14T03:40:55.107Z,100405.56
2018-03-14T03:43:22.641Z,100401.92
2018-03-14T03:45:50.146Z,100404.27
2018-03-14T03:48:17.634Z,100401.36
2018-03-14T03:50:45.157Z,100402.45
2018-03-14T03:53:12.682Z,100408.18
2018-03-14T03:55:40.236Z,100410.06
2018-03-14T03:58:07.750Z,100418.16
2018-03-14T04:00:35.246Z,100426.38
2018-03-14T04:03:02.769Z,100419.70
2018-03-14T04:05:30.315Z,100424.94
2018-03-14T04:07:58.116Z,100430.37
2018-03-14T04:10:25.993Z,100431.55
2018-03-14T04:12:54.433Z,100434.20
2018-03-14T04:15:21.950Z,100426.41
2018-03-14T04:17:49.443Z,100431.52
2018-03-14T04:20:17.254Z,100434.16
2018-03-14T04:22:44.756Z,100434.91
2018-03-14T04:25:12.263Z,100438.19
2018-03-14T04:27:39.783Z,100438.27
2018-03-14T04:30:07.287Z,100441.27
2018-03-14T04:32:35.054Z,100441.22
2018-03-14T04:35:02.574Z,100442.18
2018-03-14T04:37:30.081Z,100447.74
2018-03-14T04:39:57.838Z,100452.98
2018-03-14T04:42:25.343Z,100451.17
2018-03-14T04:44:52.865Z,100454.20
2018-03-14T04:47:20.627Z,100458.80
2018-03-14T04:49:48.131Z,100458.25
2018-03-14T04:52:15.667Z,100456.22
2018-03-14T04:54:43.161Z,100461.00
2018-03-14T04:57:10.718Z,100463.16
2018-03-14T04:59:38.218Z,100460.79
2018-03-14T05:02:05.720Z,100466.63
2018-03-14T05:04:33.560Z,100466.55
2018-03-14T05:07:01.176Z,100464.82
2018-03-14T05:09:28.705Z,100466.27
2018-03-14T05:11:56.231Z,100470.47
2018-03-14T05:14:23.727Z,100471.35
2018-03-14T05:16:51.555Z,100476.59
2018-03-14T05:19:19.325Z,100477.08
2018-03-14T05:21:46.857Z,100483.91
2018-03-14T05:24:14.364Z,100490.11
2018-03-14T05:26:42.118Z,100480.67
2018-03-14T05:29:09.648Z,100487.02
2018-03-14T05:31:37.177Z,100487.02
2018-03-14T05:34:04.703Z,100489.70
2018-03-14T05:36:32.195Z,100493.95
2018-03-14T05:38:59.719Z,100496.23
2018-03-14T05:41:27.260Z,100499.14
2018-03-14T05:43:54.791Z,100500.56
2018-03-14T05:46:22.335Z,100505.30
2018-03-14T05:48:49.846Z,100506.98
2018-03-14T05:51:17.615Z,100511.03
2018-03-14T05:53:45.168Z,100506.90
2018-03-14T05:56:12.946Z,100509.28
2018-03-14T05:58:40.527Z,100512.39
2018-03-14T06:01:08.035Z,100511.17
2018-03-14T06:03:35.529Z,100515.47
2018-03-14T06:06:03.082Z,100512.33
2018-03-14T06:08:30.610Z,100511.78
2018-03-14T06:10:58.151Z,100522.64
2018-03-14T06:13:25.663Z,100523.48
2018-03-14T06:15:53.167Z,100525.19
2018-03-14T06:18:20.714Z,100524.83
2018-03-14T06:20:48.224Z,100532.28
2018-03-14T06:23:16.110Z,100533.95
2018-03-14T06:25:43.613Z,100534.78
2018-03-14T06:28:11.163Z,100537.78
2018-03-14T06:30:38.683Z,100544.98
2018-03-14T06:33:06.264Z,100548.94
2018-03-14T06:35:33.871Z,100550.81
2018-03-14T06:38:01.401Z,100551.64
2018-03-14T06:40:28.894Z,100557.94
2018-03-14T06:42:56.417Z,100559.52
2018-03-14T06:45:24.164Z,100560.56
2018-03-14T06:47:51.751Z,100566.84
2018-03-14T06:50:19.483Z,100570.47
2018-03-14T06:52:47.025Z,100573.90
2018-03-14T06:55:14.812Z,100579.83
2018-03-14T06:57:42.677Z,100577.31
2018-03-14T07:00:21.964Z,100581.86
2018-03-14T07:02:49.601Z,100578.34
2018-03-14T07:05:29.122Z,100576.80
2018-03-14T07:07:56.878Z,100581.27
2018-03-14T07:10:24.431Z,100589.02
2018-03-14T07:12:51.968Z,100582.59
2018-03-14T07:15:19.485Z,100588.99
2018-03-14T07:17:47.048Z,100585.58
2018-03-14T07:20:14.593Z,100590.52
2018-03-14T07:22:42.104Z,100591.16
2018-03-14T07:25:09.683Z,100590.81
2018-03-14T07:27:37.317Z,100601.62
2018-03-14T07:30:04.883Z,100596.25
2018-03-14T07:32:32.404Z,100608.25
2018-03-14T07:34:59.911Z,100604.28
2018-03-14T07:37:27.453Z,100611.88
2018-03-14T07:39:54.971Z,100612.81
2018-03-14T07:42:22.517Z,100617.05
2018-03-14T07:44:50.028Z,100623.91
2018-03-14T07:47:17.572Z,100623.41
2018-03-14T07:49:45.423Z,100625.69
2018-03-14T07:52:12.935Z,100629.83
2018-03-14T07:54:40.480Z,100627.89
2018-03-14T07:57:07.998Z,100632.95
2018-03-14T07:59:35.484Z,100632.00
2018-03-14T08:02:03.018Z,100630.67
2018-03-14T08:04:30.546Z,100631.16
2018-03-14T08:06:58.251Z,100637.44
2018-03-14T08:09:25.785Z,100636.30
2018-03-14T08:11:53.346Z,100636.16
2018-03-14T08:14:20.888Z,100640.37
2018-03-14T08:16:48.454Z,100639.23
2018-03-14T08:19:16.012Z,100640.99
2018-03-14T08:21:43.534Z,100637.16
2018-03-14T08:24:11.100Z,100634.84
2018-03-14T08:26:38.685Z,100640.77
2018-03-14T08:29:06.915Z,100637.56
2018-03-14T08:31:34.459Z,100641.32
2018-03-14T08:34:02.107Z,100642.30
2018-03-14T08:36:29.631Z,100641.12
2018-03-14T08:38:57.157Z,100644.28
2018-03-14T08:41:24.820Z,100646.02
2018-03-14T08:43:52.362Z,100647.96
2018-03-14T08:46:19.879Z,100649.14
2018-03-14T08:48:47.803Z,100651.25
2018-03-14T08:51:15.528Z,100652.62
2018-03-14T08:53:43.071Z,100655.07
2018-03-14T08:56:10.607Z,100656.87
2018-03-14T08:58:38.151Z,100652.61
2018-03-14T09:01:05.889Z,100659.82
2018-03-14T09:03:33.408Z,100658.81
2018-03-14T09:06:01.505Z,100662.16
2018-03-14T09:08:29.028Z,100669.97
2018-03-14T09:10:56.633Z,100670.88
2018-03-14T09:13:24.796Z,100677.19
2018-03-14T09:15:52.655Z,100677.09
2018-03-14T09:18:21.256Z,100677.43
2018-03-14T09:20:48.845Z,100677.06
2018-03-14T09:23:16.433Z,100678.39
2018-03-14T09:25:44.006Z,100680.56
2018-03-14T09:28:11.530Z,100676.27
2018-03-14T09:30:40.070Z,100677.85
2018-03-14T09:33:07.909Z,100677.11
2018-03-14T09:35:35.542Z,100673.02
2018-03-14T09:38:03.057Z,100679.16
2018-03-14T09:40:30.604Z,100680.41
2018-03-14T09:42:58.888Z,100679.43
2018-03-14T09:45:27.115Z,100679.12
2018-03-14T09:47:55.304Z,100680.89
2018-03-14T09:50:22.871Z,100678.03
2018-03-14T09:52:50.513Z,100681.72
2018-03-14T09:55:18.096Z,100682.28
2018-03-14T09:57:45.680Z,100692.64
2018-03-14T10:00:14.971Z,100691.21
2018-03-14T10:02:42.702Z,100692.02
2018-03-14T10:05:10.257Z,100692.02
2018-03-14T10:07:38.054Z,100694.80
2018-03-14T10:10:05.632Z,100690.55
2018-03-14T10:12:34.393Z,100699.30
2018-03-14T10:15:01.907Z,100699.80
2018-03-14T10:17:29.487Z,100701.00
2018-03-14T10:19:57.215Z,100699.66
2018-03-14T10:22:24.729Z,100703.09
2018-03-14T10:24:52.308Z,100700.34
2018-03-14T10:27:19.835Z,100705.47
2018-03-14T10:29:47.363Z,100702.98
2018-03-14T10:32:15.218Z,100706.33
2018-03-14T10:34:42.889Z,100704.00
2018-03-14T10:37:11.779Z,100706.50
2018-03-14T10:39:39.415Z,100706.20
2018-03-14T10:42:07.246Z,100705.88
2018-03-14T10:44:34.955Z,100707.91
2018-03-14T10:47:02.526Z,100707.66
2018-03-14T10:49:30.155Z,100707.08
2018-03-14T10:51:57.826Z,100704.95
2018-03-14T10:54:26.295Z,100705.77
2018-03-14T10:56:53.894Z,100711.15
2018-03-14T10:59:21.413Z,100716.31
2018-03-14T11:01:48.952Z,100715.13
2018-03-14T11:04:16.474Z,100715.27
2018-03-14T11:06:43.980Z,100719.25
2018-03-14T11:09:11.515Z,100719.09
2018-03-14T11:11:39.022Z,100722.30
2018-03-14T11:14:06.895Z,100718.77
2018-03-14T11:16:35.102Z,100726.73
2018-03-14T11:19:02.603Z,100729.94
2018-03-14T11:21:30.263Z,100722.68
2018-03-14T11:23:58.809Z,100729.45
2018-03-14T11:26:26.664Z,100728.06
2018-03-14T11:28:54.204Z,100724.02
2018-03-14T11:31:21.732Z,100731.25
2018-03-14T11:33:49.305Z,100729.52
2018-03-14T11:36:17.144Z,100734.07
2018-03-14T11:38:44.812Z,100731.39
2018-03-14T11:41:12.353Z,100730.23
2018-03-14T11:43:39.913Z,100728.83
2018-03-14T11:46:07.455Z,100731.47
2018-03-14T11:48:34.985Z,100740.14
2018-03-14T11:51:02.514Z,100738.39
2018-03-14T11:53:30.042Z,100736.85
2018-03-14T11:55:57.560Z,100740.88
2018-03-14T11:58:25.109Z,100745.00
2018-03-14T12:00:52.641Z,100743.67
2018-03-14T12:03:20.561Z,100744.88
2018-03-14T12:05:48.430Z,100740.97
2018-03-14T12:08:15.939Z,100744.60
2018-03-14T12:10:43.500Z,100740.48
2018-03-14T12:13:11.986Z,100745.35
2018-03-14T12:15:39.484Z,100733.00
2018-03-14T12:18:07.165Z,100747.05
2018-03-14T12:20:34.668Z,100739.57
2018-03-14T12:23:02.199Z,100731.87
2018-03-14T12:25:29.732Z,100736.16
2018-03-14T12:27:57.304Z,100728.78
2018-03-14T12:30:24.906Z,100730.60
2018-03-14T12:32:52.549Z,100733.61
2018-03-14T12:35:20.316Z,100723.74
2018-03-14T12:37:48.389Z,100728.58
2018-03-14T12:40:15.932Z,100724.55
2018-03-14T12:42:43.451Z,100728.94
2018-03-14T12:45:10.956Z,100728.95
2018-03-14T12:47:38.702Z,100723.92
2018-03-14T12:50:06.225Z,100731.13
2018-03-14T12:52:33.778Z,100731.52
2018-03-14T12:55:01.344Z,100732.44
2018-03-14T12:57:28.860Z,100733.20
2018-03-14T12:59:56.421Z,100737.39
2018-03-14T13:02:23.984Z,100734.04
2018-03-14T13:04:51.507Z,100736.64
2018-03-14T13:07:19.014Z,100733.28
2018-03-14T13:09:46.791Z,100736.94
2018-03-14T13:12:14.634Z,100742.21
2018-03-14T13:14:42.482Z,100736.35
2018-03-14T13:17:10.010Z,100744.88
2018-03-14T13:19:38.616Z,100743.27
2018-03-14T13:22:06.128Z,100746.70
2018-03-14T13:24:33.686Z,100740.97
2018-03-14T13:27:01.211Z,100747.85
2018-03-14T13:29:28.747Z,100747.01
2018-03-14T13:31:56.443Z,100749.37
2018-03-14T13:34:23.966Z,100748.87
2018-03-14T13:36:51.762Z,100754.12
2018-03-14T13:39:19.260Z,100753.55
2018-03-14T13:41:46.813Z,100755.14
2018-03-14T13:44:14.363Z,100757.59
2018-03-14T13:46:41.932Z,100753.42
2018-03-14T13:49:09.455Z,100751.12
2018-03-14T13:51:37.222Z,100754.69
2018-03-14T13:54:04.795Z,100754.77
2018-03-14T13:56:32.332Z,100756.50
2018-03-14T13:59:00.078Z,100753.43
2018-03-14T14:01:27.786Z,100755.06
2018-03-14T14:03:55.471Z,100762.03
2018-03-14T14:06:23.055Z,100760.62
2018-03-14T14:08:52.202Z,100756.72
2018-03-14T14:11:19.819Z,100756.45
2018-03-14T14:13:47.460Z,100754.37
2018-03-14T14:16:15.249Z,100752.60
2018-03-14T14:18:43.061Z,100751.42
2018-03-14T14:21:10.757Z,100755.20
2018-03-14T14:23:38.269Z,100750.42
2018-03-14T14:26:05.899Z,100755.01
2018-03-14T14:28:33.412Z,100757.77
2018-03-14T14:31:00.939Z,100749.66
2018-03-14T14:33:28.479Z,100750.94
2018-03-14T14:35:56.057Z,100753.92
2018-03-14T14:38:23.591Z,100751.42
2018-03-14T14:40:51.107Z,100748.32
2018-03-14T14:43:18.641Z,100755.09
2018-03-14T14:45:46.142Z,100750.23
2018-03-14T14:48:13.668Z,100754.87
2018-03-14T14:50:41.390Z,100755.93
2018-03-14T14:53:08.918Z,100750.29
2018-03-14T14:55:36.465Z,100753.41
2018-03-14T14:58:03.962Z,100749.42
2018-03-14T15:00:31.477Z,100750.48
2018-03-14T15:02:59.026Z,100744.95
2018-03-14T15:05:26.546Z,100749.73
2018-03-14T15:07:54.075Z,100752.84
2018-03-14T15:10:21.878Z,100746.33
2018-03-14T15:12:49.396Z,100747.55
2018-03-14T15:15:17.037Z,100743.95
2018-03-14T15:17:44.569Z,100739.40
2018-03-14T15:20:12.131Z,100737.01
2018-03-14T15:22:39.668Z,100740.66
2018-03-14T15:25:07.221Z,100738.98
2018-03-14T15:27:34.756Z,100738.00
2018-03-14T15:30:02.299Z,100738.48
2018-03-14T15:32:29.955Z,100738.86
2018-03-14T15:34:57.524Z,100742.37
2018-03-14T15:37:25.114Z,100747.01
2018-03-14T15:39:52.652Z,100742.59
2018-03-14T15:42:20.244Z,100745.19
2018-03-14T15:44:47.801Z,100742.57
2018-03-14T15:47:15.314Z,100747.41
2018-03-14T15:49:43.110Z,100751.16
2018-03-14T15:52:10.640Z,100751.01
2018-03-14T15:54:38.531Z,100752.53
2018-03-14T15:57:06.144Z,100754.23
2018-03-14T15:59:33.711Z,100748.85
2018-03-14T16:02:01.271Z,100746.50
2018-03-14T16:04:28.816Z,100751.69
2018-03-14T16:06:56.335Z,100750.31
2018-03-14T16:09:24.035Z,100758.16
2018-03-14T16:11:51.540Z,100755.05
2018-03-14T16:14:19.096Z,100764.20
2018-03-14T16:16:46.626Z,100759.88
2018-03-14T16:19:14.307Z,100765.33
2018-03-14T16:21:42.108Z,100765.87
2018-03-14T16:24:09.633Z,100768.27
2018-03-14T16:26:37.219Z,100772.16
2018-03-14T16:29:04.750Z,100771.68
2018-03-14T16:31:32.280Z,100780.61
2018-03-14T16:33:59.910Z,100775.39
2018-03-14T16:36:27.425Z,100784.81
2018-03-14T16:38:54.960Z,100784.19
2018-03-14T16:41:22.527Z,100788.00
2018-03-14T16:43:50.040Z,100786.77
2018-03-14T16:46:17.599Z,100783.75
2018-03-14T16:48:45.136Z,100789.47
2018-03-14T16:51:12.659Z,100789.69
2018-03-14T16:53:40.179Z,100798.92
2018-03-14T16:56:07.688Z,100799.25
2018-03-14T16:58:35.262Z,100798.18
2018-03-14T17:01:02.831Z,100804.80
2018-03-14T17:03:30.333Z,100795.19
2018-03-14T17:05:57.858Z,100799.44
2018-03-14T17:08:25.363Z,100796.48
2018-03-14T17:10:53.371Z,100802.55
2018-03-14T17:13:21.240Z,100802.03
2018-03-14T17:15:48.761Z,100800.08
2018-03-14T17:18:16.315Z,100802.27
2018-03-14T17:20:43.934Z,100801.39
2018-03-14T17:23:11.539Z,100800.00
2018-03-14T17:25:39.092Z,100804.89
2018-03-14T17:28:06.631Z,100806.36
2018-03-14T17:30:34.420Z,100811.17
2018-03-14T17:33:02.012Z,100807.27
2018-03-14T17:35:29.550Z,100810.44
2018-03-14T17:37:57.055Z,100814.80
2018-03-14T17:40:24.580Z,100819.53
2018-03-14T17:42:52.079Z,100821.73
2018-03-14T17:45:19.745Z,100814.34
2018-03-14T17:47:47.324Z,100820.73
2018-03-14T17:50:14.843Z,100817.23
2018-03-14T17:52:42.376Z,100821.25
2018-03-14T17:55:09.981Z,100818.38
2018-03-14T17:57:37.669Z,100817.31
2018-03-14T18:00:05.261Z,100825.40
2018-03-14T18:02:32.780Z,100828.11
2018-03-14T18:05:00.380Z,100832.05
2018-03-14T18:07:28.141Z,100821.11
2018-03-14T18:09:56.236Z,100827.17
2018-03-14T18:12:23.737Z,100831.73
2018-03-14T18:14:51.405Z,100831.63
2018-03-14T18:17:19.014Z,100831.88
2018-03-14T18:19:46.576Z,100825.81
2018-03-14T18:22:14.140Z,100834.38
2018-03-14T18:24:41.678Z,100827.17
2018-03-14T18:27:09.461Z,100825.64
2018-03-14T18:29:37.027Z,100826.66
2018-03-14T18:32:04.881Z,100824.25
2018-03-14T18:34:33.378Z,100828.22
2018-03-14T18:37:01.198Z,100825.22
2018-03-14T18:39:28.711Z,100828.56
2018-03-14T18:41:56.247Z,100831.88
2018-03-14T18:44:24.015Z,100830.41
2018-03-14T18:46:51.609Z,100836.64
2018-03-14T18:49:19.151Z,100830.30
2018-03-14T18:51:46.667Z,100830.81
2018-03-14T18:54:14.249Z,100826.97
2018-03-14T18:56:41.754Z,100831.16
2018-03-14T18:59:09.391Z,100830.25
2018-03-14T19:01:37.139Z,100828.27
2018-03-14T19:04:04.665Z,100829.48
2018-03-14T19:06:32.202Z,100829.43
2018-03-14T19:08:59.980Z,100825.39
2018-03-14T19:11:27.600Z,100828.52
2018-03-14T19:13:55.120Z,100824.05
2018-03-14T19:16:22.626Z,100825.30
2018-03-14T19:18:50.154Z,100827.30
2018-03-14T19:21:17.664Z,100825.00
2018-03-14T19:23:45.196Z,100831.50
2018-03-14T19:26:12.724Z,100824.54
2018-03-14T19:28:40.224Z,100825.30
2018-03-14T19:31:07.741Z,100829.95
2018-03-14T19:33:35.264Z,100823.08
2018-03-14T19:36:02.799Z,100829.59
2018-03-14T19:38:30.317Z,100826.95
2018-03-14T19:40:57.816Z,100827.79
2018-03-14T19:43:25.338Z,100824.23
2018-03-14T19:45:52.822Z,100821.75
2018-03-14T19:48:20.363Z,100823.98
2018-03-14T19:50:48.679Z,100827.16
2018-03-14T19:53:16.233Z,100826.82
2018-03-14T19:55:43.806Z,100823.76
2018-03-14T19:58:11.464Z,100826.58
2018-03-14T20:00:39.113Z,100818.70
2018-03-14T20:03:06.660Z,100818.62
2018-03-14T20:05:34.192Z,100816.96
2018-03-14T20:08:01.737Z,100824.00
2018-03-14T20:10:29.243Z,100825.11
2018-03-14T20:12:56.788Z,100818.46
2018-03-14T20:15:24.297Z,100819.95
2018-03-14T20:17:51.884Z,100816.47
2018-03-14T20:20:21.168Z,100817.03
2018-03-14T20:22:49.178Z,100817.55
2018-03-14T20:25:16.913Z,100811.38
2018-03-14T20:27:44.421Z,100825.48
2018-03-14T20:30:19.220Z,100820.20
2018-03-14T20:32:46.727Z,100823.65
2018-03-14T20:35:14.255Z,100821.73
2018-03-14T20:37:41.788Z,100822.49
2018-03-14T20:40:10.783Z,100829.78
2018-03-14T20:42:38.309Z,100827.64
2018-03-14T20:45:06.023Z,100825.70
2018-03-14T20:47:33.610Z,100824.58
2018-03-14T20:50:01.334Z,100824.75
2018-03-14T20:52:29.050Z,100827.19
2018-03-14T20:54:56.932Z,100830.25
2018-03-14T20:57:24.589Z,100829.25
2018-03-14T20:59:52.128Z,100835.55
2018-03-14T21:02:20.031Z,100830.31
2018-03-14T21:04:47.577Z,100829.23
2018-03-14T21:07:15.092Z,100821.77
2018-03-14T21:09:42.624Z,100829.16
2018-03-14T21:12:10.186Z,100828.20
2018-03-14T21:14:38.212Z,100826.33
2018-03-14T21:17:05.927Z,100828.24
2018-03-14T21:19:36.381Z,100828.20
2018-03-14T21:22:04.480Z,100819.47
2018-03-14T21:24:32.112Z,100818.00
2018-03-14T21:26:59.665Z,100824.79
2018-03-14T21:29:27.260Z,100822.73
2018-03-14T21:31:54.795Z,100824.72
2018-03-14T21:34:22.401Z,100823.84
2018-03-14T21:36:50.028Z,100818.55
2018-03-14T21:39:17.682Z,100826.48
2018-03-14T21:41:45.100Z,100821.68
2018-03-14T21:44:13.104Z,100824.54
2018-03-14T21:46:40.712Z,100825.86
2018-03-14T21:49:08.252Z,100823.52
2018-03-14T21:51:35.760Z,100814.50
2018-03-14T21:54:03.319Z,100814.78
2018-03-14T21:56:30.971Z,100816.75
2018-03-14T21:58:58.515Z,100814.45
2018-03-14T22:01:26.043Z,100814.97
2018-03-14T22:03:53.596Z,100823.25
2018-03-14T22:06:21.520Z,100821.09
2018-03-14T22:08:49.001Z,100820.98
2018-03-14T22:11:16.573Z,100817.00
2018-03-14T22:13:44.104Z,100815.75
2018-03-14T22:16:12.322Z,100823.25
2018-03-14T22:18:39.847Z,100815.66
2018-03-14T22:21:07.398Z,100825.65
2018-03-14T22:23:34.972Z,100822.23
2018-03-14T22:26:02.538Z,100820.21
2018-03-14T22:28:30.104Z,100827.41
2018-03-14T22:30:57.649Z,100816.08
2018-03-14T22:33:25.177Z,100819.67
2018-03-14T22:35:52.699Z,100821.95
2018-03-14T22:38:20.220Z,100820.34
2018-03-14T22:40:47.749Z,100816.03
2018-03-14T22:43:15.256Z,100810.06
2018-03-14T22:45:42.836Z,100815.68
2018-03-14T22:48:10.375Z,100812.91
2018-03-14T22:50:37.914Z,100811.09
2018-03-14T22:53:05.580Z,100813.45
2018-03-14T22:55:33.276Z,100811.80
2018-03-14T22:58:00.871Z,100809.30
2018-03-14T23:00:28.381Z,100807.90
2018-03-14T23:02:55.964Z,100811.38
2018-03-14T23:05:23.488Z,100810.96
2018-03-14T23:07:51.007Z,100806.58
2018-03-14T23:10:18.535Z,100802.00
2018-03-14T23:12:46.051Z,100801.62
2018-03-14T23:15:13.672Z,100799.99
2018-03-14T23:17:41.173Z,100800.42
2018-03-14T23:20:08.704Z,100797.29
2018-03-14T23:22:36.489Z,100794.56
2018-03-14T23:25:04.063Z,100794.06
2018-03-14T23:27:31.574Z,100792.97
2018-03-14T23:29:59.172Z,100797.23
2018-03-14T23:32:27.044Z,100792.47
2018-03-14T23:34:54.579Z,100796.68
2018-03-14T23:37:22.092Z,100791.45
2018-03-14T23:39:49.670Z,100791.92
2018-03-14T23:42:17.205Z,100787.40
2018-03-14T23:44:44.723Z,100790.09
2018-03-14T23:47:12.385Z,100781.88
2018-03-14T23:49:39.868Z,100783.64
2018-03-14T23:52:07.412Z,100782.37
2018-03-14T23:54:34.925Z,100775.61
2018-03-14T23:57:02.758Z,100780.09
2018-03-14T23:59:30.292Z,100777.31
